createdAt,value
2022-12-04T00:01:22.903Z,95943.63
2022-12-04T00:03:54.304Z,95945.69
2022-12-04T00:06:23.615Z,95944.44
2022-12-04T00:08:52.236Z,95938.56
2022-12-04T00:11:23.444Z,95935.88
2022-12-04T00:13:51.990Z,95930.19
2022-12-04T00:16:22.796Z,95935.06
2022-12-04T00:18:51.597Z,95942.59
2022-12-04T00:21:21.301Z,95937.72
2022-12-04T00:23:49.439Z,95940.38
2022-12-04T00:26:19.149Z,95942.78
2022-12-04T00:28:49.153Z,95920.19
2022-12-04T00:31:19.135Z,95922.38
2022-12-04T00:33:48.949Z,95932.59
2022-12-04T00:36:18.961Z,95923.06
2022-12-04T00:38:47.324Z,95931.63
2022-12-04T00:41:17.643Z,95922.22
2022-12-04T00:43:48.439Z,95925.25
2022-12-04T00:46:18.535Z,95895.34
2022-12-04T00:48:47.293Z,95947.69
2022-12-04T00:51:18.211Z,95947.69
2022-12-04T00:53:46.335Z,95909.63
2022-12-04T00:56:18.667Z,95937.53
2022-12-04T00:58:47.315Z,95921.00
2022-12-04T01:01:19.024Z,95940.75
2022-12-04T01:03:47.435Z,95950.88
2022-12-04T01:06:20.776Z,95941.94
2022-12-04T01:08:49.302Z,95936.91
2022-12-04T01:11:17.632Z,95930.97
2022-12-04T01:13:45.935Z,95941.13
2022-12-04T01:16:19.449Z,95931.34
2022-12-04T01:18:47.753Z,95936.59
2022-12-04T01:21:15.794Z,95927.50
2022-12-04T01:23:44.155Z,95929.31
2022-12-04T01:26:13.368Z,95922.47
2022-12-04T01:28:41.528Z,95937.88
2022-12-04T01:31:11.800Z,95931.38
2022-12-04T01:33:41.232Z,95899.75
2022-12-04T01:36:11.829Z,95926.22
2022-12-04T01:38:40.539Z,95928.13
2022-12-04T01:41:09.447Z,95927.69
2022-12-04T01:43:39.065Z,95923.66
2022-12-04T01:46:08.803Z,95919.06
2022-12-04T01:48:42.886Z,95910.94
2022-12-04T01:51:16.418Z,95916.91
2022-12-04T01:53:48.676Z,95920.41
2022-12-04T01:56:18.176Z,95924.00
2022-12-04T01:58:50.731Z,95919.00
2022-12-04T02:01:18.667Z,95935.00
2022-12-04T02:03:48.028Z,95925.97
2022-12-04T02:06:16.133Z,95915.88
2022-12-04T02:08:48.055Z,95906.19
2022-12-04T02:11:28.385Z,95897.75
2022-12-04T02:14:05.486Z,95909.97
2022-12-04T02:16:42.251Z,95923.25
2022-12-04T02:19:37.180Z,95908.53
2022-12-04T02:22:16.514Z,95919.78
2022-12-04T02:24:54.276Z,95917.97
2022-12-04T02:27:36.329Z,95904.47
2022-12-04T02:30:16.801Z,95906.97
2022-12-04T02:32:52.289Z,95872.81
2022-12-04T02:35:27.167Z,95890.53
2022-12-04T02:38:00.264Z,95902.72
2022-12-04T02:40:32.491Z,95920.06
2022-12-04T02:43:09.266Z,95906.38
2022-12-04T02:45:42.462Z,95904.97
2022-12-04T02:48:16.787Z,95919.06
2022-12-04T02:50:47.975Z,95908.59
2022-12-04T02:53:20.089Z,95932.34
2022-12-04T02:55:52.594Z,95921.28
2022-12-04T02:58:24.988Z,95933.41
2022-12-04T03:00:55.701Z,95910.75
2022-12-04T03:03:27.659Z,95894.19
2022-12-04T03:06:04.309Z,95908.09
2022-12-04T03:08:35.927Z,95932.31
2022-12-04T03:11:05.023Z,95915.56
2022-12-04T03:13:39.203Z,95880.06
2022-12-04T03:16:12.877Z,95911.00
2022-12-04T03:18:45.414Z,95899.19
2022-12-04T03:21:21.520Z,95907.50
2022-12-04T03:23:54.079Z,95912.66
2022-12-04T03:26:28.549Z,95909.00
2022-12-04T03:29:02.249Z,95891.09
2022-12-04T03:31:40.767Z,95897.50
2022-12-04T03:34:11.948Z,95892.28
2022-12-04T03:36:50.188Z,95894.56
2022-12-04T03:39:22.583Z,95918.34
2022-12-04T03:42:00.183Z,95908.59
2022-12-04T03:44:36.517Z,95912.63
2022-12-04T03:47:09.830Z,95912.78
2022-12-04T03:49:46.418Z,95886.97
2022-12-04T03:52:22.410Z,95913.84
2022-12-04T03:54:53.001Z,95862.19
2022-12-04T03:57:25.685Z,95915.53
2022-12-04T04:00:00.413Z,95901.28
2022-12-04T04:02:35.704Z,95904.94
2022-12-04T04:05:07.203Z,95917.88
2022-12-04T04:07:40.603Z,95922.38
2022-12-04T04:10:15.160Z,95918.47
2022-12-04T04:12:46.915Z,95902.84
2022-12-04T04:15:35.115Z,95894.38
2022-12-04T04:18:22.186Z,95902.69
2022-12-04T04:21:11.423Z,95904.31
2022-12-04T04:24:07.563Z,95880.72
2022-12-04T04:26:41.662Z,95869.75
2022-12-04T04:29:10.910Z,95882.56
2022-12-04T04:31:44.156Z,95884.38
2022-12-04T04:34:20.866Z,95886.84
2022-12-04T04:36:56.850Z,95905.72
2022-12-04T04:39:32.480Z,95909.75
2022-12-04T04:42:07.761Z,95895.03
2022-12-04T04:44:45.067Z,95894.06
2022-12-04T04:47:19.757Z,95891.47
2022-12-04T04:49:53.797Z,95902.06
2022-12-04T04:52:24.583Z,95903.72
2022-12-04T04:54:52.493Z,95901.69
2022-12-04T04:57:28.363Z,95891.19
2022-12-04T04:59:58.630Z,95893.97
2022-12-04T05:02:27.939Z,95897.81
2022-12-04T05:04:57.414Z,95895.75
2022-12-04T05:07:25.411Z,95893.38
2022-12-04T05:09:53.715Z,95895.03
2022-12-04T05:12:22.084Z,95898.88
2022-12-04T05:14:50.505Z,95889.28
2022-12-04T05:17:18.589Z,95890.31
2022-12-04T05:19:54.848Z,95904.50
2022-12-04T05:22:28.110Z,95907.75
2022-12-04T05:24:56.113Z,95909.41
2022-12-04T05:27:25.011Z,95906.38
2022-12-04T05:30:12.238Z,95893.03
2022-12-04T05:32:40.186Z,95904.13
2022-12-04T05:35:11.673Z,95883.34
2022-12-04T05:37:41.782Z,95853.44
2022-12-04T05:40:26.553Z,95876.38
2022-12-04T05:42:54.528Z,95892.53
2022-12-04T05:45:25.750Z,95889.06
2022-12-04T05:47:56.981Z,95912.66
2022-12-04T05:50:24.832Z,95904.88
2022-12-04T05:52:54.174Z,95922.38
2022-12-04T05:55:22.025Z,95920.75
2022-12-04T05:57:50.089Z,95919.06
2022-12-04T06:00:19.238Z,95897.56
2022-12-04T06:02:47.401Z,95907.34
2022-12-04T06:05:15.351Z,95910.94
2022-12-04T06:07:43.627Z,95900.94
2022-12-04T06:10:12.930Z,95897.56
2022-12-04T06:12:40.779Z,95909.38
2022-12-04T06:15:09.631Z,95920.56
2022-12-04T06:17:37.521Z,95899.59
2022-12-04T06:20:11.119Z,95910.22
2022-12-04T06:22:39.666Z,95913.50
2022-12-04T06:25:10.975Z,95871.94
2022-12-04T06:27:40.370Z,95875.41
2022-12-04T06:30:09.468Z,95921.22
2022-12-04T06:32:37.329Z,95914.66
2022-12-04T06:35:07.652Z,95921.63
2022-12-04T06:37:36.203Z,95905.75
2022-12-04T06:40:06.811Z,95923.06
2022-12-04T06:42:35.102Z,95912.94
2022-12-04T06:45:04.465Z,95920.44
2022-12-04T06:47:32.391Z,95927.75
2022-12-04T06:50:00.251Z,95922.22
2022-12-04T06:52:28.453Z,95931.34
2022-12-04T06:54:56.375Z,95928.13
2022-12-04T06:57:24.411Z,95907.50
2022-12-04T06:59:52.187Z,95912.84
2022-12-04T07:02:21.470Z,95949.31
2022-12-04T07:04:49.316Z,95941.53
2022-12-04T07:07:17.194Z,95948.84
2022-12-04T07:09:46.873Z,95931.81
2022-12-04T07:12:15.346Z,95951.31
2022-12-04T07:14:43.154Z,95952.91
2022-12-04T07:17:11.001Z,95933.63
2022-12-04T07:19:40.402Z,95941.16
2022-12-04T07:22:11.465Z,95938.47
2022-12-04T07:24:41.177Z,95941.06
2022-12-04T07:27:09.144Z,95936.63
2022-12-04T07:29:38.981Z,95910.22
2022-12-04T07:32:07.184Z,95928.53
2022-12-04T07:34:38.173Z,95916.31
2022-12-04T07:37:09.641Z,95900.91
2022-12-04T07:39:46.453Z,95938.34
2022-12-04T07:42:15.087Z,95929.75
2022-12-04T07:44:47.648Z,95941.72
2022-12-04T07:47:22.785Z,95940.97
2022-12-04T07:49:50.683Z,95913.41
2022-12-04T07:52:28.695Z,95907.16
2022-12-04T07:55:01.446Z,95926.84
2022-12-04T07:57:29.631Z,95939.31
2022-12-04T07:59:57.935Z,95944.41
2022-12-04T08:02:30.343Z,95946.28
2022-12-04T08:05:00.085Z,95939.81
2022-12-04T08:07:29.871Z,95937.22
2022-12-04T08:10:05.729Z,95954.31
2022-12-04T08:12:34.481Z,95934.97
2022-12-04T08:15:06.387Z,95945.19
2022-12-04T08:17:34.307Z,95949.88
2022-12-04T08:20:02.363Z,95953.75
2022-12-04T08:22:31.788Z,95949.13
2022-12-04T08:25:01.997Z,95946.84
2022-12-04T08:27:29.912Z,95955.38
2022-12-04T08:30:00.858Z,95947.69
2022-12-04T08:32:28.712Z,95957.03
2022-12-04T08:34:57.999Z,95957.03
2022-12-04T08:37:28.812Z,95962.28
2022-12-04T08:40:02.747Z,95959.84
2022-12-04T08:42:30.561Z,95969.34
2022-12-04T08:44:58.486Z,95961.94
2022-12-04T08:47:28.500Z,95906.91
2022-12-04T08:49:59.045Z,95952.88
2022-12-04T08:52:26.890Z,95952.97
2022-12-04T08:54:54.922Z,95961.53
2022-12-04T08:57:24.226Z,95950.53
2022-12-04T08:59:52.096Z,95968.38
2022-12-04T09:02:19.990Z,95966.84
2022-12-04T09:04:47.891Z,95967.44
2022-12-04T09:07:15.806Z,95968.66
2022-12-04T09:09:55.175Z,95973.06
2022-12-04T09:12:24.547Z,95980.38
2022-12-04T09:14:52.391Z,95970.97
2022-12-04T09:17:20.217Z,95985.72
2022-12-04T09:19:48.223Z,95980.81
2022-12-04T09:22:16.032Z,95998.78
2022-12-04T09:24:44.048Z,96000.78
2022-12-04T09:27:14.945Z,96006.09
2022-12-04T09:29:44.724Z,96000.09
2022-12-04T09:32:12.513Z,95997.59
2022-12-04T09:34:40.275Z,95987.91
2022-12-04T09:37:08.050Z,95990.66
2022-12-04T09:39:35.848Z,95977.78
2022-12-04T09:42:20.500Z,95983.44
2022-12-04T09:44:55.422Z,95982.88
2022-12-04T09:47:29.190Z,95970.47
2022-12-04T09:50:02.186Z,95980.88
2022-12-04T09:52:48.601Z,95979.84
2022-12-04T09:55:24.104Z,95983.47
2022-12-04T09:58:01.294Z,95988.47
2022-12-04T10:00:33.787Z,95987.53
2022-12-04T10:03:05.871Z,95986.31
2022-12-04T10:05:45.451Z,95989.81
2022-12-04T10:08:21.306Z,95987.53
2022-12-04T10:10:57.824Z,95987.50
2022-12-04T10:13:48.889Z,95974.38
2022-12-04T10:16:25.590Z,95978.47
2022-12-04T10:19:02.794Z,95987.47
2022-12-04T10:21:50.053Z,95973.72
2022-12-04T10:24:25.793Z,95974.97
2022-12-04T10:26:58.383Z,95972.88
2022-12-04T10:29:31.974Z,95962.16
2022-12-04T10:32:07.557Z,95943.69
2022-12-04T10:34:35.718Z,95947.69
2022-12-04T10:37:12.983Z,95938.13
2022-12-04T10:39:44.969Z,95919.75
2022-12-04T10:42:18.392Z,95937.31
2022-12-04T10:44:46.300Z,95925.84
2022-12-04T10:47:15.617Z,95919.44
2022-12-04T10:49:43.599Z,95913.25
2022-12-04T10:52:13.564Z,95910.66
2022-12-04T10:54:48.629Z,95887.25
2022-12-04T10:57:18.236Z,95900.25
2022-12-04T10:59:54.130Z,95890.28
2022-12-04T11:02:25.867Z,95894.19
2022-12-04T11:04:56.867Z,95911.25
2022-12-04T11:07:27.967Z,95936.25
2022-12-04T11:09:59.522Z,95941.34
2022-12-04T11:12:27.429Z,95924.56
2022-12-04T11:15:03.694Z,95927.44
2022-12-04T11:17:32.954Z,95937.84
2022-12-04T11:20:03.349Z,95928.28
2022-12-04T11:22:31.661Z,95917.53
2022-12-04T11:25:00.671Z,95925.78
2022-12-04T11:27:32.573Z,95925.00
2022-12-04T11:30:02.988Z,95922.56
2022-12-04T11:32:35.060Z,95920.72
2022-12-04T11:35:07.179Z,95924.81
2022-12-04T11:37:39.286Z,95919.53
2022-12-04T11:40:19.556Z,95924.34
2022-12-04T11:42:59.459Z,95917.63
2022-12-04T11:45:27.355Z,95914.59
2022-12-04T11:47:58.854Z,95911.63
2022-12-04T11:50:34.737Z,95916.66
2022-12-04T11:53:16.046Z,95902.66
2022-12-04T11:56:05.089Z,95909.63
2022-12-04T11:58:49.154Z,95904.84
2022-12-04T12:01:28.045Z,95899.78
2022-12-04T12:04:21.965Z,95894.91
2022-12-04T12:06:59.881Z,95901.09
2022-12-04T12:09:35.474Z,95894.66
2022-12-04T12:12:08.572Z,95898.53
2022-12-04T12:14:45.331Z,95885.31
2022-12-04T12:17:21.817Z,95886.50
2022-12-04T12:20:15.763Z,95874.97
2022-12-04T12:23:14.023Z,95867.84
2022-12-04T12:25:52.527Z,95864.56
2022-12-04T12:28:43.695Z,95876.81
2022-12-04T12:31:28.033Z,95863.59
2022-12-04T12:34:01.501Z,95864.78
2022-12-04T12:36:37.678Z,95864.19
2022-12-04T12:39:15.295Z,95862.13
2022-12-04T12:41:46.686Z,95861.72
2022-12-04T12:44:20.554Z,95859.50
2022-12-04T12:46:52.114Z,95873.09
2022-12-04T12:49:25.497Z,95857.28
2022-12-04T12:51:59.748Z,95864.38
2022-12-04T12:54:34.260Z,95867.63
2022-12-04T12:57:07.109Z,95875.97
2022-12-04T12:59:35.897Z,95879.63
2022-12-04T13:02:12.352Z,95844.88
2022-12-04T13:04:43.632Z,95878.41
2022-12-04T13:07:26.206Z,95879.84
2022-12-04T13:09:59.301Z,95883.09
2022-12-04T13:12:28.204Z,95874.34
2022-12-04T13:14:55.993Z,95869.06
2022-12-04T13:17:33.423Z,95874.34
2022-12-04T13:20:10.205Z,95873.72
2022-12-04T13:22:50.765Z,95865.00
2022-12-04T13:25:34.189Z,95857.50
2022-12-04T13:28:13.047Z,95855.44
2022-12-04T13:30:50.003Z,95866.22
2022-12-04T13:33:38.993Z,95865.22
2022-12-04T13:36:30.771Z,95868.66
2022-12-04T13:39:27.706Z,95878.44
2022-12-04T13:41:59.800Z,95878.44
2022-12-04T13:44:28.228Z,95877.59
2022-12-04T13:46:59.551Z,95860.94
2022-12-04T13:49:30.524Z,95862.97
2022-12-04T13:52:00.469Z,95863.38
2022-12-04T13:54:32.116Z,95847.50
2022-12-04T13:57:22.137Z,95854.84
2022-12-04T13:59:50.886Z,95844.47
2022-12-04T14:02:25.631Z,95853.63
2022-12-04T14:05:00.152Z,95855.25
2022-12-04T14:07:32.049Z,95843.47
2022-12-04T14:10:04.796Z,95846.09
2022-12-04T14:12:36.523Z,95850.75
2022-12-04T14:15:07.785Z,95851.59
2022-12-04T14:17:37.724Z,95840.19
2022-12-04T14:20:10.254Z,95853.22
2022-12-04T14:22:44.261Z,95851.78
2022-12-04T14:25:38.053Z,95853.81
2022-12-04T14:28:25.830Z,95850.56
2022-12-04T14:31:14.227Z,95860.09
2022-12-04T14:33:46.670Z,95851.19
2022-12-04T14:36:20.162Z,95863.78
2022-12-04T14:38:51.041Z,95869.25
2022-12-04T14:41:27.812Z,95870.69
2022-12-04T14:43:57.438Z,95882.06
2022-12-04T14:46:32.637Z,95878.63
2022-12-04T14:49:09.589Z,95882.47
2022-12-04T14:51:43.125Z,95886.16
2022-12-04T14:54:21.204Z,95879.22
2022-12-04T14:57:03.666Z,95874.16
2022-12-04T14:59:43.754Z,95862.34
2022-12-04T15:02:17.970Z,95888.59
2022-12-04T15:04:48.839Z,95881.47
2022-12-04T15:07:21.346Z,95874.31
2022-12-04T15:10:11.343Z,95877.19
2022-12-04T15:12:49.243Z,95869.28
2022-12-04T15:15:25.093Z,95843.06
2022-12-04T15:18:00.779Z,95867.03
2022-12-04T15:20:33.403Z,95862.94
2022-12-04T15:23:05.336Z,95856.47
2022-12-04T15:25:37.869Z,95862.56
2022-12-04T15:28:13.878Z,95857.88
2022-12-04T15:30:44.441Z,95854.00
2022-12-04T15:33:21.225Z,95858.09
2022-12-04T15:35:53.452Z,95862.97
2022-12-04T15:38:21.533Z,95865.81
2022-12-04T15:40:55.216Z,95869.25
2022-12-04T15:43:31.281Z,95856.69
2022-12-04T15:46:00.327Z,95848.53
2022-12-04T15:48:32.219Z,95875.38
2022-12-04T15:51:03.831Z,95877.38
2022-12-04T15:53:34.471Z,95866.22
2022-12-04T15:56:05.980Z,95862.16
2022-12-04T15:58:37.604Z,95864.78
2022-12-04T16:01:07.696Z,95871.91
2022-12-04T16:03:39.937Z,95879.44
2022-12-04T16:06:16.413Z,95880.84
2022-12-04T16:08:46.319Z,95869.47
2022-12-04T16:11:32.826Z,95873.94
2022-12-04T16:14:15.122Z,95875.16
2022-12-04T16:16:45.168Z,95888.59
2022-12-04T16:19:29.174Z,95877.00
2022-12-04T16:21:57.455Z,95889.00
2022-12-04T16:24:25.887Z,95893.84
2022-12-04T16:26:55.807Z,95904.03
2022-12-04T16:29:25.191Z,95903.22
2022-12-04T16:31:57.087Z,95903.84
2022-12-04T16:34:28.983Z,95893.88
2022-12-04T16:36:56.729Z,95896.09
2022-12-04T16:39:24.550Z,95885.34
2022-12-04T16:41:52.281Z,95899.16
2022-12-04T16:44:20.025Z,95876.38
2022-12-04T16:46:52.046Z,95882.09
2022-12-04T16:49:19.822Z,95875.16
2022-12-04T16:51:50.702Z,95876.78
2022-12-04T16:54:19.038Z,95877.38
2022-12-04T16:56:46.776Z,95891.03
2022-12-04T16:59:14.736Z,95894.47
2022-12-04T17:01:46.562Z,95909.50
2022-12-04T17:04:16.563Z,95921.06
2022-12-04T17:06:44.982Z,95932.56
2022-12-04T17:09:13.316Z,95936.84
2022-12-04T17:11:41.968Z,95918.97
2022-12-04T17:14:10.283Z,95933.59
2022-12-04T17:16:41.289Z,95951.09
2022-12-04T17:19:10.066Z,95955.16
2022-12-04T17:21:40.315Z,95957.41
2022-12-04T17:24:08.830Z,95955.38
2022-12-04T17:26:36.715Z,95957.75
2022-12-04T17:29:04.593Z,95975.03
2022-12-04T17:31:32.556Z,95967.09
2022-12-04T17:34:00.416Z,95962.63
2022-12-04T17:36:28.610Z,95961.19
2022-12-04T17:39:01.538Z,95956.13
2022-12-04T17:41:29.479Z,95960.63
2022-12-04T17:43:57.277Z,95949.47
2022-12-04T17:46:25.289Z,95962.47
2022-12-04T17:48:53.446Z,95959.63
2022-12-04T17:51:23.238Z,95977.53
2022-12-04T17:53:51.450Z,95970.19
2022-12-04T17:56:22.099Z,95976.53
2022-12-04T17:58:50.429Z,95983.66
2022-12-04T18:01:20.761Z,95997.63
2022-12-04T18:03:51.255Z,95995.34
2022-12-04T18:06:20.608Z,95997.81
2022-12-04T18:08:50.430Z,96001.47
2022-12-04T18:11:21.375Z,96004.28
2022-12-04T18:13:49.895Z,95997.31
2022-12-04T18:16:17.810Z,96005.84
2022-12-04T18:18:47.112Z,96006.06
2022-12-04T18:21:15.932Z,96018.25
2022-12-04T18:23:45.800Z,96013.44
2022-12-04T18:26:15.762Z,96011.25
2022-12-04T18:28:45.602Z,96019.31
2022-12-04T18:31:14.797Z,96029.03
2022-12-04T18:33:43.980Z,96011.38
2022-12-04T18:36:15.251Z,96021.66
2022-12-04T18:38:43.285Z,96022.84
2022-12-04T18:41:12.709Z,96038.66
2022-12-04T18:43:42.592Z,96039.47
2022-12-04T18:46:14.889Z,96044.88
2022-12-04T18:48:44.519Z,96045.09
2022-12-04T18:51:18.170Z,96032.09
2022-12-04T18:53:46.135Z,96037.41
2022-12-04T18:56:14.316Z,96034.78
2022-12-04T18:58:42.786Z,96038.38
2022-12-04T19:01:13.901Z,96039.03
2022-12-04T19:03:42.492Z,96037.66
2022-12-04T19:06:12.206Z,96041.72
2022-12-04T19:08:43.295Z,96039.69
2022-12-04T19:11:14.431Z,96055.56
2022-12-04T19:13:42.590Z,96059.97
2022-12-04T19:16:14.578Z,96062.81
2022-12-04T19:18:42.303Z,96065.13
2022-12-04T19:21:10.718Z,96046.31
2022-12-04T19:23:39.000Z,96068.94
2022-12-04T19:26:07.378Z,96060.78
2022-12-04T19:28:35.528Z,96065.50
2022-12-04T19:31:03.358Z,96072.63
2022-12-04T19:33:32.691Z,96053.88
2022-12-04T19:36:02.049Z,96058.25
2022-12-04T19:38:30.843Z,96057.31
2022-12-04T19:41:08.226Z,96043.56
2022-12-04T19:43:36.284Z,96039.72
2022-12-04T19:46:04.715Z,96026.63
2022-12-04T19:48:34.094Z,96042.56
2022-12-04T19:51:06.342Z,96048.25
2022-12-04T19:53:40.477Z,96055.59
2022-12-04T19:56:11.650Z,96060.06
2022-12-04T19:58:39.651Z,96055.19
2022-12-04T20:01:11.438Z,96042.59
2022-12-04T20:03:40.884Z,96040.16
2022-12-04T20:06:11.179Z,96043.03
2022-12-04T20:08:39.490Z,96025.50
2022-12-04T20:11:09.404Z,96040.59
2022-12-04T20:13:37.630Z,96035.09
2022-12-04T20:16:07.076Z,96056.38
2022-12-04T20:18:35.849Z,96051.69
2022-12-04T20:21:10.972Z,96056.97
2022-12-04T20:23:39.749Z,96064.13
2022-12-04T20:26:08.817Z,96064.25
2022-12-04T20:28:36.960Z,96072.81
2022-12-04T20:31:13.414Z,96063.50
2022-12-04T20:33:41.656Z,96054.56
2022-12-04T20:36:12.317Z,96053.38
2022-12-04T20:38:41.037Z,96047.19
2022-12-04T20:41:10.698Z,96060.47
2022-12-04T20:43:38.624Z,96056.41
2022-12-04T20:46:15.475Z,96050.69
2022-12-04T20:48:48.233Z,96053.97
2022-12-04T20:51:18.680Z,96063.50
2022-12-04T20:53:47.781Z,96072.66
2022-12-04T20:56:15.859Z,96068.13
2022-12-04T20:58:44.350Z,96061.28
2022-12-04T21:01:14.531Z,96073.91
2022-12-04T21:03:43.373Z,96066.00
2022-12-04T21:06:14.043Z,96084.81
2022-12-04T21:08:56.743Z,96084.81
2022-12-04T21:11:26.773Z,96084.41
2022-12-04T21:14:13.845Z,96106.97
2022-12-04T21:16:43.884Z,96103.13
2022-12-04T21:19:14.408Z,96109.69
2022-12-04T21:21:42.764Z,96098.72
2022-12-04T21:24:14.976Z,96079.31
2022-12-04T21:26:42.913Z,96096.44
2022-12-04T21:29:11.255Z,96102.31
2022-12-04T21:31:39.427Z,96107.75
2022-12-04T21:34:08.966Z,96111.22
2022-12-04T21:36:36.735Z,96106.78
2022-12-04T21:39:05.510Z,96121.16
2022-12-04T21:41:52.316Z,96112.66
2022-12-04T21:44:21.777Z,96134.88
2022-12-04T21:46:50.692Z,96140.03
2022-12-04T21:49:19.668Z,96129.72
2022-12-04T21:51:57.458Z,96144.59
2022-12-04T21:54:26.688Z,96142.44
2022-12-04T21:56:57.332Z,96145.31
2022-12-04T21:59:25.935Z,96159.63
2022-12-04T22:01:54.724Z,96157.03
2022-12-04T22:04:23.348Z,96159.09
2022-12-04T22:06:51.246Z,96171.91
2022-12-04T22:09:21.102Z,96154.22
2022-12-04T22:11:48.975Z,96161.94
2022-12-04T22:14:18.107Z,96155.88
2022-12-04T22:16:46.021Z,96179.50
2022-12-04T22:19:13.973Z,96174.44
2022-12-04T22:21:41.827Z,96196.53
2022-12-04T22:24:10.868Z,96184.66
2022-12-04T22:26:39.486Z,96201.63
2022-12-04T22:29:41.491Z,96194.50
2022-12-04T22:31:57.081Z,96216.19
2022-12-04T22:34:24.984Z,96202.72
2022-12-04T22:36:52.912Z,96204.28
2022-12-04T22:39:20.831Z,96204.97
2022-12-04T22:41:48.660Z,96225.38
2022-12-04T22:44:16.500Z,96230.78
2022-12-04T22:46:44.373Z,96237.13
2022-12-04T22:49:13.790Z,96223.91
2022-12-04T22:51:41.584Z,96227.06
2022-12-04T22:54:14.039Z,96242.00
2022-12-04T22:56:42.282Z,96251.88
2022-12-04T22:59:10.241Z,96260.97
2022-12-04T23:01:38.050Z,96260.97
2022-12-04T23:04:05.986Z,96283.25
2022-12-04T23:06:38.315Z,96280.13
2022-12-04T23:09:09.630Z,96269.06
2022-12-04T23:11:37.768Z,96269.16
2022-12-04T23:14:07.920Z,96264.94
2022-12-04T23:16:38.510Z,96272.72
2022-12-04T23:19:07.279Z,96277.75
2022-12-04T23:21:36.651Z,96283.56
2022-12-04T23:24:05.013Z,96266.63
2022-12-04T23:26:34.896Z,96284.00
2022-12-04T23:29:03.232Z,96276.69
2022-12-04T23:31:32.396Z,96272.59
2022-12-04T23:34:00.899Z,96248.69
2022-12-04T23:36:29.156Z,96267.53
2022-12-04T23:38:58.503Z,96266.91
2022-12-04T23:41:28.330Z,96284.06
2022-12-04T23:43:57.931Z,96294.41
2022-12-04T23:46:30.903Z,96304.44
2022-12-04T23:48:58.878Z,96305.22
2022-12-04T23:51:26.958Z,96298.44
2022-12-04T23:53:54.901Z,96308.13
2022-12-04T23:56:25.905Z,96303.00
2022-12-04T23:58:55.473Z,96313.03
